createdAt,value
2018-01-19T00:01:21.033Z,2.60
2018-01-19T00:03:48.633Z,2.60
2018-01-19T00:06:17.033Z,2.70
2018-01-19T00:08:45.409Z,2.70
2018-01-19T00:11:13.777Z,2.70
2018-01-19T00:13:41.417Z,2.60
2018-01-19T00:16:09.020Z,2.70
2018-01-19T00:18:36.633Z,2.70
2018-01-19T00:21:05.037Z,2.70
2018-01-19T00:23:32.657Z,2.60
2018-01-19T00:26:00.256Z,2.70
2018-01-19T00:28:27.898Z,2.70
2018-01-19T00:30:55.511Z,2.70
2018-01-19T00:33:23.888Z,2.70
2018-01-19T00:35:51.527Z,2.60
2018-01-19T00:38:19.128Z,2.70
2018-01-19T00:40:46.733Z,2.70
2018-01-19T00:43:15.141Z,2.70
2018-01-19T00:45:42.741Z,2.60
2018-01-19T00:48:10.344Z,2.70
2018-01-19T00:50:37.990Z,2.70
2018-01-19T00:53:05.592Z,2.70
2018-01-19T00:55:33.197Z,2.60
2018-01-19T00:58:00.836Z,2.60
2018-01-19T01:00:28.441Z,2.60
2018-01-19T01:02:56.814Z,2.60
2018-01-19T01:05:25.216Z,2.60
2018-01-19T01:07:53.593Z,2.60
2018-01-19T01:10:21.193Z,2.50
2018-01-19T01:12:49.608Z,2.60
2018-01-19T01:15:17.218Z,2.50
2018-01-19T01:17:44.831Z,2.60
2018-01-19T01:20:12.477Z,2.60
2018-01-19T01:22:40.087Z,2.60
2018-01-19T01:25:07.697Z,2.60
2018-01-19T01:27:35.362Z,2.60
2018-01-19T01:30:02.965Z,2.50
2018-01-19T01:32:30.573Z,2.50
2018-01-19T01:34:58.981Z,2.50
2018-01-19T01:37:26.590Z,2.50
2018-01-19T01:39:54.192Z,2.50
2018-01-19T01:42:22.610Z,2.50
2018-01-19T01:44:50.221Z,2.50
2018-01-19T01:47:17.821Z,2.60
2018-01-19T01:49:45.455Z,2.50
2018-01-19T01:52:13.057Z,2.60
2018-01-19T01:54:40.669Z,2.50
2018-01-19T01:57:09.078Z,2.60
2018-01-19T01:59:36.690Z,2.60
2018-01-19T02:02:04.305Z,2.60
2018-01-19T02:04:32.707Z,2.60
2018-01-19T02:07:00.321Z,2.60
2018-01-19T02:09:27.922Z,2.70
2018-01-19T02:11:55.557Z,2.70
2018-01-19T02:14:23.169Z,2.70
2018-01-19T02:16:50.773Z,2.60
2018-01-19T02:19:18.426Z,2.60
2018-01-19T02:21:46.033Z,2.60
2018-01-19T02:24:13.635Z,2.70
2018-01-19T02:26:41.277Z,2.70
2018-01-19T02:29:08.877Z,2.70
2018-01-19T02:31:36.482Z,2.70
2018-01-19T02:34:04.121Z,2.80
2018-01-19T02:36:31.726Z,2.70
2018-01-19T02:38:59.345Z,2.70
2018-01-19T02:41:26.983Z,2.80
2018-01-19T02:43:54.590Z,2.70
2018-01-19T02:46:22.202Z,2.80
2018-01-19T02:48:49.838Z,2.80
2018-01-19T02:51:17.446Z,2.80
2018-01-19T02:53:45.061Z,2.80
2018-01-19T02:56:13.465Z,2.80
2018-01-19T02:58:41.842Z,2.80
2018-01-19T03:01:09.446Z,2.80
2018-01-19T03:03:37.084Z,2.80
2018-01-19T03:06:04.685Z,2.80
2018-01-19T03:08:32.297Z,2.80
2018-01-19T03:10:59.940Z,2.80
2018-01-19T03:13:27.545Z,2.80
2018-01-19T03:15:55.144Z,2.80
2018-01-19T03:18:22.782Z,2.80
2018-01-19T03:20:50.401Z,2.80
2018-01-19T03:23:18.008Z,2.80
2018-01-19T03:25:45.642Z,2.80
2018-01-19T03:28:13.244Z,2.80
2018-01-19T03:30:41.620Z,2.80
2018-01-19T03:33:09.431Z,2.70
2018-01-19T03:35:37.083Z,2.80
2018-01-19T03:38:05.458Z,2.80
2018-01-19T03:40:33.860Z,2.80
2018-01-19T03:43:02.237Z,2.80
2018-01-19T03:45:29.846Z,2.80
2018-01-19T03:47:57.483Z,2.80
2018-01-19T03:50:25.081Z,2.90
2018-01-19T03:52:53.642Z,2.80
2018-01-19T03:55:21.274Z,2.80
2018-01-19T03:57:48.901Z,2.90
2018-01-19T04:00:16.520Z,2.90
2018-01-19T04:02:44.153Z,2.90
2018-01-19T04:05:11.757Z,2.90
2018-01-19T04:07:39.356Z,2.90
2018-01-19T04:10:06.993Z,2.90
2018-01-19T04:12:35.385Z,2.80
2018-01-19T04:15:03.002Z,2.80
2018-01-19T04:17:30.640Z,2.80
2018-01-19T04:19:58.242Z,2.80
2018-01-19T04:22:25.853Z,2.80
2018-01-19T04:24:53.486Z,2.80
2018-01-19T04:27:21.094Z,2.80
2018-01-19T04:29:48.701Z,2.80
2018-01-19T04:32:17.109Z,2.80
2018-01-19T04:34:44.716Z,2.70
2018-01-19T04:37:12.309Z,2.80
2018-01-19T04:39:39.946Z,2.80
2018-01-19T04:42:07.552Z,2.80
2018-01-19T04:44:35.158Z,2.80
2018-01-19T04:47:03.560Z,2.70
2018-01-19T04:49:31.173Z,2.70
2018-01-19T04:51:58.778Z,2.70
2018-01-19T04:54:26.414Z,2.70
2018-01-19T04:56:54.101Z,2.70
2018-01-19T04:59:21.708Z,2.70
2018-01-19T05:01:50.111Z,2.70
2018-01-19T05:04:18.484Z,2.70
2018-01-19T05:06:46.098Z,2.60
2018-01-19T05:09:13.759Z,2.60
2018-01-19T05:11:41.366Z,2.60
2018-01-19T05:14:08.969Z,2.60
2018-01-19T05:16:36.603Z,2.60
2018-01-19T05:19:04.211Z,2.60
2018-01-19T05:21:31.829Z,2.60
2018-01-19T05:23:59.465Z,2.60
2018-01-19T05:26:27.074Z,2.60
2018-01-19T05:28:54.684Z,2.60
2018-01-19T05:31:22.324Z,2.60
2018-01-19T05:33:49.931Z,2.60
2018-01-19T05:36:17.533Z,2.60
2018-01-19T05:38:45.167Z,2.60
2018-01-19T05:41:12.774Z,2.60
2018-01-19T05:43:40.385Z,2.50
2018-01-19T05:46:08.780Z,2.50
2018-01-19T05:48:36.405Z,2.40
2018-01-19T05:51:04.014Z,2.50
2018-01-19T05:53:32.417Z,2.50
2018-01-19T05:56:00.789Z,2.50
2018-01-19T05:58:29.184Z,2.50
2018-01-19T06:00:57.589Z,2.50
2018-01-19T06:03:25.961Z,2.50
2018-01-19T06:05:53.561Z,2.50
2018-01-19T06:08:21.233Z,2.60
2018-01-19T06:10:48.836Z,2.60
2018-01-19T06:13:16.437Z,2.60
2018-01-19T06:15:44.073Z,2.60
2018-01-19T06:18:11.681Z,2.60
2018-01-19T06:20:39.287Z,2.60
2018-01-19T06:23:07.688Z,2.50
2018-01-19T06:25:36.049Z,2.50
2018-01-19T06:28:03.664Z,2.50
2018-01-19T06:30:31.298Z,2.50
2018-01-19T06:32:58.908Z,2.50
2018-01-19T06:35:26.514Z,2.50
2018-01-19T06:37:54.154Z,2.60
2018-01-19T06:40:21.768Z,2.60
2018-01-19T06:42:49.385Z,2.70
2018-01-19T06:45:17.794Z,2.70
2018-01-19T06:47:45.401Z,2.60
2018-01-19T06:50:13.017Z,2.70
2018-01-19T06:52:40.689Z,2.70
2018-01-19T06:55:08.289Z,2.60
2018-01-19T06:57:36.674Z,2.70
2018-01-19T07:00:05.081Z,2.60
2018-01-19T07:02:32.691Z,2.60
2018-01-19T07:05:00.297Z,2.60
2018-01-19T07:07:28.704Z,2.60
2018-01-19T07:09:57.083Z,2.60
2018-01-19T07:12:25.500Z,2.60
2018-01-19T07:14:53.885Z,2.70
2018-01-19T07:17:22.249Z,2.70
2018-01-19T07:19:49.861Z,2.60
2018-01-19T07:22:17.497Z,2.70
2018-01-19T07:24:45.147Z,2.70
2018-01-19T07:27:12.741Z,2.60
2018-01-19T07:29:40.377Z,2.50
2018-01-19T07:32:07.986Z,2.50
2018-01-19T07:34:35.595Z,2.50
2018-01-19T07:37:03.234Z,2.50
2018-01-19T07:39:30.857Z,2.50
2018-01-19T07:41:58.460Z,2.50
2018-01-19T07:44:26.103Z,2.60
2018-01-19T07:46:54.556Z,2.50
2018-01-19T07:49:22.161Z,2.60
2018-01-19T07:51:49.797Z,2.50
2018-01-19T07:54:17.400Z,2.60
2018-01-19T07:56:45.775Z,2.60
2018-01-19T07:59:14.176Z,2.60
2018-01-19T08:01:42.564Z,2.70
2018-01-19T08:04:10.929Z,2.70
2018-01-19T08:06:38.564Z,2.70
2018-01-19T08:09:06.164Z,2.70
2018-01-19T08:11:33.771Z,2.80
2018-01-19T08:14:01.416Z,2.80
2018-01-19T08:16:29.018Z,2.70
2018-01-19T08:18:56.625Z,2.80
2018-01-19T08:21:24.261Z,2.80
2018-01-19T08:23:51.878Z,2.80
2018-01-19T08:26:19.484Z,2.90
2018-01-19T08:28:47.137Z,2.80
2018-01-19T08:31:15.513Z,2.80
2018-01-19T08:33:43.121Z,2.70
2018-01-19T08:36:10.752Z,2.70
2018-01-19T08:38:38.357Z,2.80
2018-01-19T08:41:06.726Z,2.80
2018-01-19T08:43:34.364Z,2.80
2018-01-19T08:46:01.969Z,2.80
2018-01-19T08:48:29.568Z,2.80
2018-01-19T08:50:57.969Z,2.90
2018-01-19T08:53:25.581Z,2.90
2018-01-19T08:55:53.193Z,2.90
2018-01-19T08:58:21.593Z,3.00
2018-01-19T09:00:49.968Z,3.10
2018-01-19T09:03:17.573Z,3.10
2018-01-19T09:05:45.207Z,3.10
2018-01-19T09:08:12.813Z,3.10
2018-01-19T09:10:41.176Z,3.10
2018-01-19T09:13:08.809Z,3.10
2018-01-19T09:15:36.413Z,3.10
2018-01-19T09:18:04.016Z,3.20
2018-01-19T09:20:32.420Z,3.30
2018-01-19T09:23:00.785Z,3.30
2018-01-19T09:25:28.397Z,3.30
2018-01-19T09:27:56.045Z,3.40
2018-01-19T09:30:24.421Z,3.40
2018-01-19T09:32:52.024Z,3.30
2018-01-19T09:35:19.668Z,3.40
2018-01-19T09:37:47.290Z,3.40
2018-01-19T09:40:14.898Z,3.50
2018-01-19T09:42:42.534Z,3.40
2018-01-19T09:45:10.141Z,3.50
2018-01-19T09:47:37.752Z,3.40
2018-01-19T09:50:06.157Z,3.50
2018-01-19T09:52:34.535Z,3.60
2018-01-19T09:55:02.905Z,3.60
2018-01-19T09:57:30.574Z,3.50
2018-01-19T09:59:58.169Z,3.70
2018-01-19T10:02:25.802Z,3.80
2018-01-19T10:04:53.436Z,3.90
2018-01-19T10:07:21.055Z,3.80
2018-01-19T10:09:48.665Z,3.90
2018-01-19T10:12:17.081Z,4.00
2018-01-19T10:14:44.686Z,3.90
2018-01-19T10:17:12.281Z,4.00
2018-01-19T10:19:39.914Z,4.00
2018-01-19T10:22:07.512Z,4.10
2018-01-19T10:24:35.127Z,4.10
2018-01-19T10:27:03.533Z,4.00
2018-01-19T10:29:31.915Z,4.00
2018-01-19T10:32:00.564Z,4.00
2018-01-19T10:34:28.205Z,4.00
2018-01-19T10:36:55.805Z,4.10
2018-01-19T10:39:23.414Z,4.10
2018-01-19T10:41:51.045Z,4.10
2018-01-19T10:44:18.652Z,4.20
2018-01-19T10:46:46.259Z,4.10
2018-01-19T10:49:14.665Z,4.10
2018-01-19T10:51:42.271Z,4.00
2018-01-19T10:54:09.872Z,4.10
2018-01-19T10:56:37.510Z,4.10
2018-01-19T10:59:05.122Z,4.10
2018-01-19T11:01:32.766Z,4.10
2018-01-19T11:04:00.396Z,4.00
2018-01-19T11:06:28.774Z,4.00
2018-01-19T11:08:57.154Z,4.00
2018-01-19T11:11:24.786Z,4.00
2018-01-19T11:13:52.434Z,4.10
2018-01-19T11:16:20.797Z,4.20
2018-01-19T11:18:48.437Z,4.20
2018-01-19T11:21:16.065Z,4.30
2018-01-19T11:23:44.433Z,4.70
2018-01-19T11:26:12.065Z,4.60
2018-01-19T11:28:39.665Z,4.90
2018-01-19T11:31:07.269Z,5.20
2018-01-19T11:33:35.664Z,5.80
2018-01-19T11:36:04.040Z,5.80
2018-01-19T11:38:31.644Z,5.80
2018-01-19T11:40:59.605Z,5.80
2018-01-19T11:43:27.976Z,5.80
2018-01-19T11:45:55.585Z,5.70
2018-01-19T11:48:24.273Z,6.60
2018-01-19T11:50:52.653Z,6.80
2018-01-19T11:53:20.253Z,6.80
2018-01-19T11:55:47.940Z,6.50
2018-01-19T11:58:15.540Z,6.50
2018-01-19T12:00:43.149Z,6.40
2018-01-19T12:03:10.793Z,6.30
2018-01-19T12:05:38.400Z,6.30
2018-01-19T12:08:06.769Z,6.00
2018-01-19T12:10:34.401Z,5.90
2018-01-19T12:13:02.012Z,5.80
2018-01-19T12:15:29.608Z,5.80
2018-01-19T12:17:57.256Z,5.70
2018-01-19T12:20:24.865Z,5.70
2018-01-19T12:22:53.244Z,5.60
2018-01-19T12:25:20.873Z,5.50
2018-01-19T12:27:48.477Z,5.60
2018-01-19T12:30:16.099Z,5.70
2018-01-19T12:32:43.729Z,5.70
2018-01-19T12:35:11.333Z,5.80
2018-01-19T12:37:39.709Z,5.70
2018-01-19T12:40:07.350Z,5.60
2018-01-19T12:42:34.987Z,5.60
2018-01-19T12:45:02.601Z,5.60
2018-01-19T12:47:30.249Z,5.70
2018-01-19T12:49:57.848Z,5.70
2018-01-19T12:52:25.507Z,5.80
2018-01-19T12:54:53.122Z,5.80
2018-01-19T12:57:20.733Z,5.90
2018-01-19T12:59:48.346Z,6.00
2018-01-19T13:02:16.009Z,5.90
2018-01-19T13:04:43.617Z,6.00
2018-01-19T13:07:11.234Z,6.20
2018-01-19T13:09:38.860Z,6.10
2018-01-19T13:12:06.467Z,5.90
2018-01-19T13:14:34.183Z,5.60
2018-01-19T13:17:01.832Z,5.70
2018-01-19T13:19:29.440Z,5.60
2018-01-19T13:21:57.077Z,5.50
2018-01-19T13:24:24.717Z,5.50
2018-01-19T13:26:53.080Z,5.70
2018-01-19T13:29:20.694Z,5.70
2018-01-19T13:31:49.089Z,5.90
2018-01-19T13:34:17.462Z,5.90
2018-01-19T13:36:45.064Z,5.80
2018-01-19T13:39:12.773Z,5.80
2018-01-19T13:41:40.385Z,5.80
2018-01-19T13:44:08.749Z,5.50
2018-01-19T13:46:36.380Z,5.40
2018-01-19T13:49:04.009Z,5.40
2018-01-19T13:51:31.616Z,5.50
2018-01-19T13:54:00.051Z,5.90
2018-01-19T13:56:27.645Z,5.80
2018-01-19T13:58:55.248Z,5.80
2018-01-19T14:01:23.656Z,5.30
2018-01-19T14:03:51.257Z,5.30
2018-01-19T14:06:18.869Z,5.10
2018-01-19T14:08:46.505Z,5.10
2018-01-19T14:11:14.105Z,4.90
2018-01-19T14:13:41.708Z,4.70
2018-01-19T14:16:10.104Z,4.60
2018-01-19T14:18:38.469Z,4.50
2018-01-19T14:21:06.076Z,4.50
2018-01-19T14:23:33.712Z,4.40
2018-01-19T14:26:01.313Z,4.30
2018-01-19T14:28:29.684Z,4.00
2018-01-19T14:30:57.321Z,3.90
2018-01-19T14:33:24.932Z,3.80
2018-01-19T14:35:52.532Z,3.70
2018-01-19T14:38:20.164Z,3.60
2018-01-19T14:40:47.765Z,3.60
2018-01-19T14:43:16.140Z,3.60
2018-01-19T14:45:43.785Z,3.50
2018-01-19T14:48:11.404Z,3.40
2018-01-19T14:50:39.782Z,3.30
2018-01-19T14:53:07.447Z,3.20
2018-01-19T14:55:35.069Z,3.20
2018-01-19T14:58:02.682Z,3.20
2018-01-19T15:00:30.321Z,3.30
2018-01-19T15:02:57.926Z,3.30
2018-01-19T15:05:25.541Z,3.20
2018-01-19T15:07:53.951Z,3.20
2018-01-19T15:10:21.562Z,3.10
2018-01-19T15:12:49.192Z,3.10
2018-01-19T15:15:17.598Z,3.20
2018-01-19T15:17:45.216Z,3.10
2018-01-19T15:20:12.825Z,3.20
2018-01-19T15:22:41.232Z,3.10
2018-01-19T15:25:08.833Z,3.10
2018-01-19T15:27:36.429Z,3.10
2018-01-19T15:30:04.069Z,3.00
2018-01-19T15:32:31.684Z,2.90
2018-01-19T15:34:59.286Z,2.90
2018-01-19T15:37:27.689Z,2.80
2018-01-19T15:39:55.298Z,2.70
2018-01-19T15:42:22.905Z,2.70
2018-01-19T15:44:50.562Z,2.70
2018-01-19T15:47:18.177Z,2.70
2018-01-19T15:49:45.784Z,2.60
2018-01-19T15:52:13.421Z,2.60
2018-01-19T15:54:41.789Z,2.60
2018-01-19T15:57:09.388Z,2.50
2018-01-19T15:59:37.797Z,2.40
2018-01-19T16:02:05.409Z,2.30
2018-01-19T16:04:33.016Z,2.40
2018-01-19T16:07:01.426Z,2.30
2018-01-19T16:09:29.042Z,2.20
2018-01-19T16:11:56.654Z,2.20
2018-01-19T16:14:25.065Z,2.00
2018-01-19T16:16:52.706Z,2.00
2018-01-19T16:19:20.313Z,2.00
2018-01-19T16:21:47.957Z,2.00
2018-01-19T16:24:15.565Z,1.90
2018-01-19T16:26:43.225Z,2.00
2018-01-19T16:29:10.854Z,1.90
2018-01-19T16:31:38.512Z,1.80
2018-01-19T16:34:06.127Z,1.80
2018-01-19T16:36:33.776Z,1.90
2018-01-19T16:39:01.380Z,1.90
2018-01-19T16:41:29.001Z,1.80
2018-01-19T16:43:56.652Z,1.70
2018-01-19T16:46:24.279Z,1.60
2018-01-19T16:48:51.893Z,1.60
2018-01-19T16:51:20.320Z,1.60
2018-01-19T16:53:47.932Z,1.60
2018-01-19T16:56:15.540Z,1.60
2018-01-19T16:58:43.188Z,1.70
2018-01-19T17:01:10.812Z,1.70
2018-01-19T17:03:38.426Z,1.70
2018-01-19T17:06:06.069Z,1.80
2018-01-19T17:08:33.702Z,1.80
2018-01-19T17:11:02.081Z,1.80
2018-01-19T17:13:30.484Z,1.70
2018-01-19T17:15:58.920Z,1.80
2018-01-19T17:18:26.528Z,1.70
2018-01-19T17:20:54.184Z,1.80
2018-01-19T17:23:21.803Z,1.80
2018-01-19T17:25:58.874Z,1.80
2018-01-19T17:28:26.496Z,1.80
2018-01-19T17:30:54.473Z,1.80
2018-01-19T17:33:22.397Z,1.80
2018-01-19T17:35:50.017Z,1.80
2018-01-19T17:38:17.633Z,1.70
2018-01-19T17:40:45.301Z,1.80
2018-01-19T17:43:12.929Z,1.80
2018-01-19T17:45:40.811Z,1.80
2018-01-19T17:48:09.208Z,1.90
2018-01-19T17:50:38.527Z,1.90
2018-01-19T17:53:06.149Z,1.90
2018-01-19T17:55:33.784Z,1.90
2018-01-19T17:58:01.441Z,1.90
2018-01-19T18:00:29.865Z,1.90
2018-01-19T18:02:57.560Z,1.90
2018-01-19T18:05:25.169Z,2.00
2018-01-19T18:07:53.752Z,2.00
2018-01-19T18:10:21.673Z,2.00
2018-01-19T18:12:49.299Z,2.00
2018-01-19T18:15:24.903Z,2.00
2018-01-19T18:17:53.785Z,2.00
2018-01-19T18:20:21.509Z,2.00
2018-01-19T18:22:49.178Z,2.00
2018-01-19T18:25:16.904Z,1.90
2018-01-19T18:27:45.382Z,1.90
2018-01-19T18:30:13.786Z,1.90
2018-01-19T18:32:41.406Z,1.90
2018-01-19T18:35:09.072Z,1.90
2018-01-19T18:37:36.781Z,1.90
2018-01-19T18:40:04.393Z,1.90
2018-01-19T18:42:32.815Z,2.00
2018-01-19T18:45:00.425Z,1.90
2018-01-19T18:47:28.037Z,2.00
2018-01-19T18:49:56.441Z,2.10
2018-01-19T18:52:24.968Z,2.10
2018-01-19T18:54:52.853Z,2.00
2018-01-19T18:57:20.496Z,2.10
2018-01-19T18:59:48.105Z,2.10
2018-01-19T19:02:15.717Z,2.10
2018-01-19T19:04:43.362Z,2.10
2018-01-19T19:07:11.131Z,2.10
2018-01-19T19:09:39.063Z,2.10
2018-01-19T19:12:07.509Z,2.00
2018-01-19T19:14:35.117Z,2.00
2018-01-19T19:17:03.989Z,2.00
2018-01-19T19:19:31.672Z,1.90
2018-01-19T19:21:59.568Z,1.90
2018-01-19T19:24:27.411Z,1.90
2018-01-19T19:26:55.057Z,1.90
2018-01-19T19:29:22.665Z,1.90
2018-01-19T19:31:50.282Z,1.90
2018-01-19T19:34:18.935Z,2.00
2018-01-19T19:36:47.784Z,1.90
2018-01-19T19:39:16.341Z,2.00
2018-01-19T19:41:43.983Z,2.00
2018-01-19T19:44:12.150Z,2.00
2018-01-19T19:46:39.796Z,2.00
2018-01-19T19:49:07.854Z,2.10
2018-01-19T19:51:35.469Z,2.10
2018-01-19T19:54:04.089Z,2.10
2018-01-19T19:56:31.772Z,2.10
2018-01-19T19:58:59.680Z,2.10
2018-01-19T20:01:27.355Z,2.10
2018-01-19T20:03:55.041Z,2.10
2018-01-19T20:06:22.709Z,2.00
2018-01-19T20:08:50.329Z,2.10
2018-01-19T20:11:18.749Z,2.10
2018-01-19T20:13:46.371Z,2.00
2018-01-19T20:16:13.993Z,2.10
2018-01-19T20:18:41.654Z,2.10
2018-01-19T20:21:09.333Z,2.00
2018-01-19T20:23:36.956Z,2.00
2018-01-19T20:26:04.638Z,1.90
2018-01-19T20:28:32.266Z,1.80
2018-01-19T20:30:59.932Z,1.80
2018-01-19T20:33:27.629Z,1.80
2018-01-19T20:35:55.244Z,1.70
2018-01-19T20:38:22.852Z,1.60
2018-01-19T20:40:50.504Z,1.50
2018-01-19T20:43:18.904Z,1.30
2018-01-19T20:45:47.296Z,1.30
2018-01-19T20:48:15.713Z,1.10
2018-01-19T20:50:43.325Z,1.10
2018-01-19T20:53:10.943Z,1.00
2018-01-19T20:55:38.593Z,0.90
2018-01-19T20:58:06.213Z,0.90
2018-01-19T21:00:33.828Z,0.80
2018-01-19T21:03:02.044Z,0.70
2018-01-19T21:05:30.422Z,0.60
2018-01-19T21:07:58.037Z,0.60
2018-01-19T21:10:25.681Z,0.60
2018-01-19T21:12:54.158Z,0.50
2018-01-19T21:15:22.649Z,0.50
2018-01-19T21:17:51.045Z,0.50
2018-01-19T21:20:18.663Z,0.60
2018-01-19T21:22:46.364Z,0.70
2018-01-19T21:25:14.013Z,0.60
2018-01-19T21:27:41.652Z,0.70
2018-01-19T21:30:10.134Z,0.70
2018-01-19T21:32:38.852Z,0.60
2018-01-19T21:35:06.557Z,0.70
2018-01-19T21:37:34.172Z,0.60
2018-01-19T21:40:01.830Z,0.70
2018-01-19T21:42:29.440Z,0.70
2018-01-19T21:44:57.112Z,0.70
2018-01-19T21:47:25.256Z,0.70
2018-01-19T21:49:52.889Z,0.60
2018-01-19T21:52:21.273Z,0.50
2018-01-19T21:54:49.691Z,0.70
2018-01-19T21:57:17.306Z,0.60
2018-01-19T21:59:44.945Z,0.60
2018-01-19T22:02:13.461Z,0.60
2018-01-19T22:04:41.081Z,0.50
2018-01-19T22:07:09.460Z,0.50
2018-01-19T22:09:37.109Z,0.50
2018-01-19T22:12:04.732Z,0.50
2018-01-19T22:14:33.269Z,0.50
2018-01-19T22:17:00.917Z,0.40
2018-01-19T22:19:28.528Z,0.40
2018-01-19T22:21:56.138Z,0.50
2018-01-19T22:24:24.652Z,0.60
2018-01-19T22:26:52.264Z,0.50
2018-01-19T22:29:21.392Z,0.60
2018-01-19T22:31:49.037Z,0.60
2018-01-19T22:34:16.645Z,0.60
2018-01-19T22:36:44.257Z,0.60
2018-01-19T22:39:12.933Z,0.60
2018-01-19T22:41:41.313Z,0.70
2018-01-19T22:44:09.832Z,0.60
2018-01-19T22:46:38.245Z,0.80
2018-01-19T22:49:05.882Z,0.80
2018-01-19T22:51:33.493Z,0.80
2018-01-19T22:54:03.168Z,0.80
2018-01-19T22:56:30.785Z,0.90
2018-01-19T22:58:58.392Z,0.90
2018-01-19T23:01:26.041Z,1.10
2018-01-19T23:03:54.150Z,1.10
2018-01-19T23:06:21.938Z,1.20
2018-01-19T23:08:49.599Z,1.20
2018-01-19T23:11:17.204Z,1.30
2018-01-19T23:13:44.909Z,1.30
2018-01-19T23:16:12.556Z,1.40
2018-01-19T23:18:41.962Z,1.40
2018-01-19T23:21:09.576Z,1.30
2018-01-19T23:23:37.219Z,1.30
2018-01-19T23:26:04.829Z,1.30
2018-01-19T23:28:32.448Z,1.30
2018-01-19T23:31:01.030Z,1.30
2018-01-19T23:33:28.646Z,1.20
2018-01-19T23:35:57.029Z,1.20
2018-01-19T23:38:24.670Z,1.20
2018-01-19T23:40:54.224Z,1.20
2018-01-19T23:43:21.845Z,1.20
2018-01-19T23:45:49.490Z,1.20
2018-01-19T23:48:17.869Z,1.30
2018-01-19T23:50:47.656Z,1.30
2018-01-19T23:53:15.317Z,1.40
2018-01-19T23:55:42.925Z,1.40
2018-01-19T23:58:10.536Z,1.30
